sensor_id;sensor_type;location;lat;lon;timestamp;temperature;humidity
41058;DHT22;27499;48.884;2.258;2022-08-19T00:01:33;21.90;99.90
41058;DHT22;27499;48.884;2.258;2022-08-19T00:04:07;21.80;99.90
41058;DHT22;27499;48.884;2.258;2022-08-19T00:06:36;21.80;99.90
41058;DHT22;27499;48.884;2.258;2022-08-19T00:09:05;21.80;99.90
41058;DHT22;27499;48.884;2.258;2022-08-19T00:11:33;21.80;99.90
41058;DHT22;27499;48.884;2.258;2022-08-19T00:14:01;21.70;99.90
41058;DHT22;27499;48.884;2.258;2022-08-19T00:16:28;21.70;99.90
41058;DHT22;27499;48.884;2.258;2022-08-19T00:18:55;21.70;99.90
41058;DHT22;27499;48.884;2.258;2022-08-19T00:21:25;21.70;99.90
41058;DHT22;27499;48.884;2.258;2022-08-19T00:23:55;21.60;99.90
41058;DHT22;27499;48.884;2.258;2022-08-19T00:26:26;21.60;99.90
41058;DHT22;27499;48.884;2.258;2022-08-19T00:28:53;21.60;99.90
41058;DHT22;27499;48.884;2.258;2022-08-19T00:31:21;21.60;99.90
41058;DHT22;27499;48.884;2.258;2022-08-19T00:33:48;21.60;99.90
41058;DHT22;27499;48.884;2.258;2022-08-19T00:36:18;21.60;99.90
41058;DHT22;27499;48.884;2.258;2022-08-19T00:38:45;21.60;99.90
41058;DHT22;27499;48.884;2.258;2022-08-19T00:41:15;21.60;99.90
41058;DHT22;27499;48.884;2.258;2022-08-19T00:43:42;21.50;99.90
41058;DHT22;27499;48.884;2.258;2022-08-19T00:46:09;21.50;99.90
41058;DHT22;27499;48.884;2.258;2022-08-19T00:48:36;21.50;99.90
41058;DHT22;27499;48.884;2.258;2022-08-19T00:51:04;21.50;99.90
41058;DHT22;27499;48.884;2.258;2022-08-19T00:53:33;21.50;99.90
41058;DHT22;27499;48.884;2.258;2022-08-19T00:56:02;21.50;99.90
41058;DHT22;27499;48.884;2.258;2022-08-19T00:58:33;21.40;99.90
41058;DHT22;27499;48.884;2.258;2022-08-19T01:01:02;21.40;99.90
41058;DHT22;27499;48.884;2.258;2022-08-19T01:03:29;21.40;99.90
41058;DHT22;27499;48.884;2.258;2022-08-19T01:06:16;21.40;99.90
41058;DHT22;27499;48.884;2.258;2022-08-19T01:08:46;21.40;99.90
41058;DHT22;27499;48.884;2.258;2022-08-19T01:11:16;21.40;99.90
41058;DHT22;27499;48.884;2.258;2022-08-19T01:13:44;21.40;99.90
41058;DHT22;27499;48.884;2.258;2022-08-19T01:16:16;21.40;99.90
41058;DHT22;27499;48.884;2.258;2022-08-19T01:18:44;21.30;99.90
41058;DHT22;27499;48.884;2.258;2022-08-19T01:21:27;21.30;99.90
41058;DHT22;27499;48.884;2.258;2022-08-19T01:23:55;21.30;99.90
41058;DHT22;27499;48.884;2.258;2022-08-19T01:26:24;21.30;99.90
41058;DHT22;27499;48.884;2.258;2022-08-19T01:28:54;21.30;99.90
41058;DHT22;27499;48.884;2.258;2022-08-19T01:31:27;21.20;99.90
41058;DHT22;27499;48.884;2.258;2022-08-19T01:33:58;21.20;99.90
41058;DHT22;27499;48.884;2.258;2022-08-19T01:36:30;21.20;99.90
41058;DHT22;27499;48.884;2.258;2022-08-19T01:38:58;21.20;99.90
41058;DHT22;27499;48.884;2.258;2022-08-19T01:41:26;21.20;99.90
41058;DHT22;27499;48.884;2.258;2022-08-19T01:43:53;21.20;99.90
41058;DHT22;27499;48.884;2.258;2022-08-19T01:46:40;21.20;99.90
41058;DHT22;27499;48.884;2.258;2022-08-19T01:49:07;21.10;99.90
41058;DHT22;27499;48.884;2.258;2022-08-19T01:51:36;21.20;99.90
41058;DHT22;27499;48.884;2.258;2022-08-19T01:54:07;21.10;99.90
41058;DHT22;27499;48.884;2.258;2022-08-19T01:56:34;21.10;99.90
41058;DHT22;27499;48.884;2.258;2022-08-19T01:59:03;21.10;99.90
41058;DHT22;27499;48.884;2.258;2022-08-19T02:01:31;21.10;99.90
41058;DHT22;27499;48.884;2.258;2022-08-19T02:03:59;21.10;99.90
41058;DHT22;27499;48.884;2.258;2022-08-19T02:06:27;21.00;99.90
41058;DHT22;27499;48.884;2.258;2022-08-19T02:08:55;21.00;99.90
41058;DHT22;27499;48.884;2.258;2022-08-19T02:11:29;21.10;99.90
41058;DHT22;27499;48.884;2.258;2022-08-19T02:13:59;21.10;99.90
41058;DHT22;27499;48.884;2.258;2022-08-19T02:16:26;21.00;99.90
41058;DHT22;27499;48.884;2.258;2022-08-19T02:18:53;21.00;99.90
41058;DHT22;27499;48.884;2.258;2022-08-19T02:21:21;21.00;99.90
41058;DHT22;27499;48.884;2.258;2022-08-19T02:23:49;21.00;99.90
41058;DHT22;27499;48.884;2.258;2022-08-19T02:26:17;21.00;99.90
41058;DHT22;27499;48.884;2.258;2022-08-19T02:28:45;21.00;99.90
41058;DHT22;27499;48.884;2.258;2022-08-19T02:31:15;21.00;99.90
41058;DHT22;27499;48.884;2.258;2022-08-19T02:33:43;21.00;99.90
41058;DHT22;27499;48.884;2.258;2022-08-19T02:36:12;21.00;99.90
41058;DHT22;27499;48.884;2.258;2022-08-19T02:38:41;21.00;99.90
41058;DHT22;27499;48.884;2.258;2022-08-19T02:41:19;21.00;99.90
41058;DHT22;27499;48.884;2.258;2022-08-19T02:43:49;21.00;99.90
41058;DHT22;27499;48.884;2.258;2022-08-19T02:46:36;21.00;99.90
41058;DHT22;27499;48.884;2.258;2022-08-19T02:49:06;21.00;99.90
41058;DHT22;27499;48.884;2.258;2022-08-19T02:51:40;21.00;99.90
41058;DHT22;27499;48.884;2.258;2022-08-19T02:54:09;21.00;99.90
41058;DHT22;27499;48.884;2.258;2022-08-19T02:56:37;21.00;99.90
41058;DHT22;27499;48.884;2.258;2022-08-19T02:59:05;21.00;99.90
41058;DHT22;27499;48.884;2.258;2022-08-19T03:01:37;21.00;99.90
41058;DHT22;27499;48.884;2.258;2022-08-19T03:04:09;20.90;99.90
41058;DHT22;27499;48.884;2.258;2022-08-19T03:06:42;20.90;99.90
41058;DHT22;27499;48.884;2.258;2022-08-19T03:09:10;21.00;99.90
41058;DHT22;27499;48.884;2.258;2022-08-19T03:11:37;20.90;99.90
41058;DHT22;27499;48.884;2.258;2022-08-19T03:14:06;20.90;99.90
41058;DHT22;27499;48.884;2.258;2022-08-19T03:16:44;20.90;99.90
41058;DHT22;27499;48.884;2.258;2022-08-19T03:19:11;20.90;99.90
41058;DHT22;27499;48.884;2.258;2022-08-19T03:21:38;20.90;99.90
41058;DHT22;27499;48.884;2.258;2022-08-19T03:24:07;20.90;99.90
41058;DHT22;27499;48.884;2.258;2022-08-19T03:26:39;20.90;99.90
41058;DHT22;27499;48.884;2.258;2022-08-19T03:29:07;20.80;99.90
41058;DHT22;27499;48.884;2.258;2022-08-19T03:31:38;20.80;99.90
41058;DHT22;27499;48.884;2.258;2022-08-19T03:34:16;20.90;99.90
41058;DHT22;27499;48.884;2.258;2022-08-19T03:36:45;20.80;99.90
41058;DHT22;27499;48.884;2.258;2022-08-19T03:39:13;20.80;99.90
41058;DHT22;27499;48.884;2.258;2022-08-19T03:41:42;20.80;99.90
41058;DHT22;27499;48.884;2.258;2022-08-19T03:44:19;20.80;99.90
41058;DHT22;27499;48.884;2.258;2022-08-19T03:46:55;20.80;99.90
41058;DHT22;27499;48.884;2.258;2022-08-19T03:49:24;20.80;99.90
41058;DHT22;27499;48.884;2.258;2022-08-19T03:51:56;20.80;99.90
41058;DHT22;27499;48.884;2.258;2022-08-19T03:54:24;20.80;99.90
41058;DHT22;27499;48.884;2.258;2022-08-19T03:56:53;20.80;99.90
41058;DHT22;27499;48.884;2.258;2022-08-19T03:59:26;20.80;99.90
41058;DHT22;27499;48.884;2.258;2022-08-19T04:01:57;20.80;99.90
41058;DHT22;27499;48.884;2.258;2022-08-19T04:04:25;20.80;99.90
41058;DHT22;27499;48.884;2.258;2022-08-19T04:06:55;20.80;99.90
41058;DHT22;27499;48.884;2.258;2022-08-19T04:09:23;20.80;99.90
41058;DHT22;27499;48.884;2.258;2022-08-19T04:11:51;20.80;99.90
41058;DHT22;27499;48.884;2.258;2022-08-19T04:14:29;20.80;99.90
41058;DHT22;27499;48.884;2.258;2022-08-19T04:16:58;20.80;99.90
41058;DHT22;27499;48.884;2.258;2022-08-19T04:19:26;20.80;99.90
41058;DHT22;27499;48.884;2.258;2022-08-19T04:21:54;20.80;99.90
41058;DHT22;27499;48.884;2.258;2022-08-19T04:24:22;20.80;99.90
41058;DHT22;27499;48.884;2.258;2022-08-19T04:26:50;20.70;99.90
41058;DHT22;27499;48.884;2.258;2022-08-19T04:29:22;20.70;99.90
41058;DHT22;27499;48.884;2.258;2022-08-19T04:31:53;20.80;99.90
41058;DHT22;27499;48.884;2.258;2022-08-19T04:34:22;20.80;99.90
41058;DHT22;27499;48.884;2.258;2022-08-19T04:36:51;20.70;99.90
41058;DHT22;27499;48.884;2.258;2022-08-19T04:39:26;20.80;99.90
41058;DHT22;27499;48.884;2.258;2022-08-19T04:42:15;20.70;99.90
41058;DHT22;27499;48.884;2.258;2022-08-19T04:45:00;20.70;99.90
41058;DHT22;27499;48.884;2.258;2022-08-19T04:47:30;20.70;99.90
41058;DHT22;27499;48.884;2.258;2022-08-19T04:50:19;20.80;99.90
41058;DHT22;27499;48.884;2.258;2022-08-19T04:52:46;20.80;99.90
41058;DHT22;27499;48.884;2.258;2022-08-19T04:55:13;20.80;99.90
41058;DHT22;27499;48.884;2.258;2022-08-19T04:57:41;20.80;99.90
41058;DHT22;27499;48.884;2.258;2022-08-19T05:00:09;20.80;99.90
41058;DHT22;27499;48.884;2.258;2022-08-19T05:02:37;20.80;99.90
41058;DHT22;27499;48.884;2.258;2022-08-19T05:05:05;20.70;99.90
41058;DHT22;27499;48.884;2.258;2022-08-19T05:07:33;20.80;99.90
41058;DHT22;27499;48.884;2.258;2022-08-19T05:10:01;20.80;99.90
41058;DHT22;27499;48.884;2.258;2022-08-19T05:12:28;20.80;99.90
41058;DHT22;27499;48.884;2.258;2022-08-19T05:14:56;20.80;99.90
41058;DHT22;27499;48.884;2.258;2022-08-19T05:17:25;20.80;99.90
41058;DHT22;27499;48.884;2.258;2022-08-19T05:19:55;20.80;99.90
41058;DHT22;27499;48.884;2.258;2022-08-19T05:22:41;20.80;99.90
41058;DHT22;27499;48.884;2.258;2022-08-19T05:25:12;20.80;99.90
41058;DHT22;27499;48.884;2.258;2022-08-19T05:27:41;20.80;99.90
41058;DHT22;27499;48.884;2.258;2022-08-19T05:30:09;20.80;99.90
41058;DHT22;27499;48.884;2.258;2022-08-19T05:32:37;20.80;99.90
41058;DHT22;27499;48.884;2.258;2022-08-19T05:35:05;20.80;99.90
41058;DHT22;27499;48.884;2.258;2022-08-19T05:37:32;20.80;99.90
41058;DHT22;27499;48.884;2.258;2022-08-19T05:39:59;20.80;99.90
41058;DHT22;27499;48.884;2.258;2022-08-19T05:42:26;20.80;99.90
41058;DHT22;27499;48.884;2.258;2022-08-19T05:44:53;20.70;99.90
41058;DHT22;27499;48.884;2.258;2022-08-19T05:47:20;20.70;99.90
41058;DHT22;27499;48.884;2.258;2022-08-19T05:49:48;20.70;99.90
41058;DHT22;27499;48.884;2.258;2022-08-19T05:52:16;20.70;99.90
41058;DHT22;27499;48.884;2.258;2022-08-19T05:54:45;20.70;99.90
41058;DHT22;27499;48.884;2.258;2022-08-19T05:57:18;20.70;99.90
41058;DHT22;27499;48.884;2.258;2022-08-19T05:59:45;20.70;99.90
41058;DHT22;27499;48.884;2.258;2022-08-19T06:02:19;20.70;99.90
41058;DHT22;27499;48.884;2.258;2022-08-19T06:04:46;20.80;99.90
41058;DHT22;27499;48.884;2.258;2022-08-19T06:07:13;20.70;99.90
41058;DHT22;27499;48.884;2.258;2022-08-19T06:09:40;20.70;99.90
41058;DHT22;27499;48.884;2.258;2022-08-19T06:12:25;20.80;99.90
41058;DHT22;27499;48.884;2.258;2022-08-19T06:15:06;20.70;99.90
41058;DHT22;27499;48.884;2.258;2022-08-19T06:17:33;20.70;99.90
41058;DHT22;27499;48.884;2.258;2022-08-19T06:20:13;20.80;99.90
41058;DHT22;27499;48.884;2.258;2022-08-19T06:22:42;20.80;99.90
41058;DHT22;27499;48.884;2.258;2022-08-19T06:25:10;20.80;99.90
41058;DHT22;27499;48.884;2.258;2022-08-19T06:27:37;20.80;99.90
41058;DHT22;27499;48.884;2.258;2022-08-19T06:30:24;20.80;99.90
41058;DHT22;27499;48.884;2.258;2022-08-19T06:32:51;20.80;99.90
41058;DHT22;27499;48.884;2.258;2022-08-19T06:35:18;20.80;99.90
41058;DHT22;27499;48.884;2.258;2022-08-19T06:37:45;20.80;99.90
41058;DHT22;27499;48.884;2.258;2022-08-19T06:40:12;20.80;99.90
41058;DHT22;27499;48.884;2.258;2022-08-19T06:42:39;20.80;99.90
41058;DHT22;27499;48.884;2.258;2022-08-19T06:45:19;20.90;99.90
41058;DHT22;27499;48.884;2.258;2022-08-19T06:47:50;20.90;99.90
41058;DHT22;27499;48.884;2.258;2022-08-19T06:50:20;20.90;99.90
41058;DHT22;27499;48.884;2.258;2022-08-19T06:52:50;20.90;99.90
41058;DHT22;27499;48.884;2.258;2022-08-19T06:55:18;20.90;99.90
41058;DHT22;27499;48.884;2.258;2022-08-19T06:57:46;20.90;99.90
41058;DHT22;27499;48.884;2.258;2022-08-19T07:00:13;20.90;99.90
41058;DHT22;27499;48.884;2.258;2022-08-19T07:02:41;20.90;99.90
41058;DHT22;27499;48.884;2.258;2022-08-19T07:05:21;20.90;99.90
41058;DHT22;27499;48.884;2.258;2022-08-19T07:07:48;20.90;99.90
41058;DHT22;27499;48.884;2.258;2022-08-19T07:10:16;20.90;99.90
41058;DHT22;27499;48.884;2.258;2022-08-19T07:12:43;20.90;99.90
41058;DHT22;27499;48.884;2.258;2022-08-19T07:15:12;20.90;99.90
41058;DHT22;27499;48.884;2.258;2022-08-19T07:17:39;20.90;99.90
41058;DHT22;27499;48.884;2.258;2022-08-19T07:20:08;21.00;99.90
41058;DHT22;27499;48.884;2.258;2022-08-19T07:22:37;20.90;99.90
41058;DHT22;27499;48.884;2.258;2022-08-19T07:25:05;20.90;99.90
41058;DHT22;27499;48.884;2.258;2022-08-19T07:27:33;20.90;99.90
41058;DHT22;27499;48.884;2.258;2022-08-19T07:30:01;20.90;99.90
41058;DHT22;27499;48.884;2.258;2022-08-19T07:32:28;20.90;99.90
41058;DHT22;27499;48.884;2.258;2022-08-19T07:34:55;20.90;99.90
41058;DHT22;27499;48.884;2.258;2022-08-19T07:37:24;20.90;99.90
41058;DHT22;27499;48.884;2.258;2022-08-19T07:39:58;20.90;99.90
41058;DHT22;27499;48.884;2.258;2022-08-19T07:42:25;21.00;99.90
41058;DHT22;27499;48.884;2.258;2022-08-19T07:44:53;21.00;99.90
41058;DHT22;27499;48.884;2.258;2022-08-19T07:47:20;21.00;99.90
41058;DHT22;27499;48.884;2.258;2022-08-19T07:50:09;21.00;99.90
41058;DHT22;27499;48.884;2.258;2022-08-19T07:52:38;21.00;99.90
41058;DHT22;27499;48.884;2.258;2022-08-19T07:55:08;21.00;99.90
41058;DHT22;27499;48.884;2.258;2022-08-19T07:57:55;21.00;99.90
41058;DHT22;27499;48.884;2.258;2022-08-19T08:00:22;21.10;99.90
41058;DHT22;27499;48.884;2.258;2022-08-19T08:02:51;21.00;99.90
41058;DHT22;27499;48.884;2.258;2022-08-19T08:05:22;21.10;99.90
41058;DHT22;27499;48.884;2.258;2022-08-19T08:08:10;21.10;99.90
41058;DHT22;27499;48.884;2.258;2022-08-19T08:10:58;21.20;99.90
41058;DHT22;27499;48.884;2.258;2022-08-19T08:13:25;21.20;99.90
41058;DHT22;27499;48.884;2.258;2022-08-19T08:15:54;21.20;99.90
41058;DHT22;27499;48.884;2.258;2022-08-19T08:18:23;21.20;99.90
41058;DHT22;27499;48.884;2.258;2022-08-19T08:20:56;21.30;99.90
41058;DHT22;27499;48.884;2.258;2022-08-19T08:23:23;21.30;99.90
41058;DHT22;27499;48.884;2.258;2022-08-19T08:25:56;21.30;99.90
41058;DHT22;27499;48.884;2.258;2022-08-19T08:28:25;21.30;99.90
41058;DHT22;27499;48.884;2.258;2022-08-19T08:30:56;21.30;99.90
41058;DHT22;27499;48.884;2.258;2022-08-19T08:33:26;21.30;99.90
41058;DHT22;27499;48.884;2.258;2022-08-19T08:36:07;21.30;99.90
41058;DHT22;27499;48.884;2.258;2022-08-19T08:38:36;21.30;99.90
41058;DHT22;27499;48.884;2.258;2022-08-19T08:41:28;21.30;99.90
41058;DHT22;27499;48.884;2.258;2022-08-19T08:43:57;21.30;99.90
41058;DHT22;27499;48.884;2.258;2022-08-19T08:46:30;21.30;99.90
41058;DHT22;27499;48.884;2.258;2022-08-19T08:52:02;21.40;99.90
41058;DHT22;27499;48.884;2.258;2022-08-19T08:54:41;21.40;99.90
41058;DHT22;27499;48.884;2.258;2022-08-19T08:57:32;21.40;99.90
41058;DHT22;27499;48.884;2.258;2022-08-19T09:00:19;21.40;99.90
41058;DHT22;27499;48.884;2.258;2022-08-19T09:02:48;21.40;99.90
41058;DHT22;27499;48.884;2.258;2022-08-19T09:05:18;21.50;99.90
41058;DHT22;27499;48.884;2.258;2022-08-19T09:10:52;21.50;99.90
41058;DHT22;27499;48.884;2.258;2022-08-19T09:15:54;21.60;99.90
41058;DHT22;27499;48.884;2.258;2022-08-19T09:18:24;21.60;99.90
41058;DHT22;27499;48.884;2.258;2022-08-19T09:20:55;21.70;99.90
41058;DHT22;27499;48.884;2.258;2022-08-19T09:23:22;21.70;99.90
41058;DHT22;27499;48.884;2.258;2022-08-19T09:25:53;21.70;99.90
41058;DHT22;27499;48.884;2.258;2022-08-19T09:28:20;21.70;99.90
41058;DHT22;27499;48.884;2.258;2022-08-19T09:30:51;21.80;99.90
41058;DHT22;27499;48.884;2.258;2022-08-19T09:33:18;21.80;99.90
41058;DHT22;27499;48.884;2.258;2022-08-19T09:35:46;21.80;99.90
41058;DHT22;27499;48.884;2.258;2022-08-19T09:38:19;21.80;99.90
41058;DHT22;27499;48.884;2.258;2022-08-19T09:40:46;21.90;99.90
41058;DHT22;27499;48.884;2.258;2022-08-19T09:43:13;22.00;99.90
41058;DHT22;27499;48.884;2.258;2022-08-19T09:45:59;22.00;99.90
41058;DHT22;27499;48.884;2.258;2022-08-19T09:48:26;22.10;99.90
41058;DHT22;27499;48.884;2.258;2022-08-19T09:50:53;22.10;99.90
41058;DHT22;27499;48.884;2.258;2022-08-19T09:53:21;22.10;99.90
41058;DHT22;27499;48.884;2.258;2022-08-19T09:55:51;22.20;99.90
41058;DHT22;27499;48.884;2.258;2022-08-19T09:58:18;22.20;99.90
41058;DHT22;27499;48.884;2.258;2022-08-19T10:00:51;22.20;99.90
41058;DHT22;27499;48.884;2.258;2022-08-19T10:03:19;22.20;99.90
41058;DHT22;27499;48.884;2.258;2022-08-19T10:05:53;22.30;99.90
41058;DHT22;27499;48.884;2.258;2022-08-19T10:08:26;22.30;99.90
41058;DHT22;27499;48.884;2.258;2022-08-19T10:10:54;22.30;99.90
41058;DHT22;27499;48.884;2.258;2022-08-19T10:13:25;22.30;99.90
41058;DHT22;27499;48.884;2.258;2022-08-19T10:15:54;22.30;99.90
41058;DHT22;27499;48.884;2.258;2022-08-19T10:18:24;22.30;99.90
41058;DHT22;27499;48.884;2.258;2022-08-19T10:20:52;22.40;99.90
41058;DHT22;27499;48.884;2.258;2022-08-19T10:23:28;22.40;99.90
41058;DHT22;27499;48.884;2.258;2022-08-19T10:26:01;22.40;99.90
41058;DHT22;27499;48.884;2.258;2022-08-19T10:28:28;22.40;99.90
41058;DHT22;27499;48.884;2.258;2022-08-19T10:30:56;22.40;99.90
41058;DHT22;27499;48.884;2.258;2022-08-19T10:33:23;22.50;99.90
41058;DHT22;27499;48.884;2.258;2022-08-19T10:36:15;22.50;99.90
41058;DHT22;27499;48.884;2.258;2022-08-19T10:38:46;22.60;99.90
41058;DHT22;27499;48.884;2.258;2022-08-19T10:41:23;22.60;99.90
41058;DHT22;27499;48.884;2.258;2022-08-19T10:43:52;22.70;99.90
41058;DHT22;27499;48.884;2.258;2022-08-19T10:46:22;22.70;99.90
41058;DHT22;27499;48.884;2.258;2022-08-19T10:48:50;22.70;99.90
41058;DHT22;27499;48.884;2.258;2022-08-19T10:51:18;22.80;99.90
41058;DHT22;27499;48.884;2.258;2022-08-19T10:54:13;22.70;99.90
41058;DHT22;27499;48.884;2.258;2022-08-19T10:56:40;22.80;99.90
41058;DHT22;27499;48.884;2.258;2022-08-19T10:59:26;22.80;99.90
41058;DHT22;27499;48.884;2.258;2022-08-19T11:02:02;22.80;99.90
41058;DHT22;27499;48.884;2.258;2022-08-19T11:04:29;22.80;99.90
41058;DHT22;27499;48.884;2.258;2022-08-19T11:06:56;22.80;99.90
41058;DHT22;27499;48.884;2.258;2022-08-19T11:09:24;22.80;99.90
41058;DHT22;27499;48.884;2.258;2022-08-19T11:12:00;22.90;99.90
41058;DHT22;27499;48.884;2.258;2022-08-19T11:14:30;22.80;99.90
41058;DHT22;27499;48.884;2.258;2022-08-19T11:17:00;22.90;99.90
41058;DHT22;27499;48.884;2.258;2022-08-19T11:19:27;22.80;99.90
41058;DHT22;27499;48.884;2.258;2022-08-19T11:21:54;22.90;99.90
41058;DHT22;27499;48.884;2.258;2022-08-19T11:24:25;22.80;99.90
41058;DHT22;27499;48.884;2.258;2022-08-19T11:26:58;22.80;99.90
41058;DHT22;27499;48.884;2.258;2022-08-19T11:29:27;22.80;99.90
41058;DHT22;27499;48.884;2.258;2022-08-19T11:31:55;22.80;99.90
41058;DHT22;27499;48.884;2.258;2022-08-19T11:34:26;22.70;99.90
41058;DHT22;27499;48.884;2.258;2022-08-19T11:36:55;22.70;99.90
41058;DHT22;27499;48.884;2.258;2022-08-19T11:39:29;22.60;99.90
41058;DHT22;27499;48.884;2.258;2022-08-19T11:42:00;22.60;99.90
41058;DHT22;27499;48.884;2.258;2022-08-19T11:44:51;22.60;99.90
41058;DHT22;27499;48.884;2.258;2022-08-19T11:47:18;22.60;99.90
41058;DHT22;27499;48.884;2.258;2022-08-19T11:49:46;22.60;99.90
41058;DHT22;27499;48.884;2.258;2022-08-19T11:52:13;22.60;99.90
41058;DHT22;27499;48.884;2.258;2022-08-19T11:54:40;22.60;99.90
41058;DHT22;27499;48.884;2.258;2022-08-19T11:57:07;22.60;99.90
41058;DHT22;27499;48.884;2.258;2022-08-19T11:59:34;22.60;99.90
41058;DHT22;27499;48.884;2.258;2022-08-19T12:02:01;22.60;99.90
41058;DHT22;27499;48.884;2.258;2022-08-19T12:04:28;22.60;99.90
41058;DHT22;27499;48.884;2.258;2022-08-19T12:06:55;22.60;99.90
41058;DHT22;27499;48.884;2.258;2022-08-19T12:09:22;22.60;99.90
41058;DHT22;27499;48.884;2.258;2022-08-19T12:11:49;22.60;99.90
41058;DHT22;27499;48.884;2.258;2022-08-19T12:14:17;22.60;99.90
41058;DHT22;27499;48.884;2.258;2022-08-19T12:16:45;22.60;99.90
41058;DHT22;27499;48.884;2.258;2022-08-19T12:19:18;22.60;99.90
41058;DHT22;27499;48.884;2.258;2022-08-19T12:21:48;22.60;99.90
41058;DHT22;27499;48.884;2.258;2022-08-19T12:24:15;22.60;99.90
41058;DHT22;27499;48.884;2.258;2022-08-19T12:26:42;22.60;99.90
41058;DHT22;27499;48.884;2.258;2022-08-19T12:29:19;22.60;99.90
41058;DHT22;27499;48.884;2.258;2022-08-19T12:31:50;22.60;99.90
41058;DHT22;27499;48.884;2.258;2022-08-19T12:34:17;22.60;99.90
41058;DHT22;27499;48.884;2.258;2022-08-19T12:36:46;22.60;99.90
41058;DHT22;27499;48.884;2.258;2022-08-19T12:39:16;22.60;99.90
41058;DHT22;27499;48.884;2.258;2022-08-19T12:41:43;22.60;99.90
41058;DHT22;27499;48.884;2.258;2022-08-19T12:44:21;22.60;99.90
41058;DHT22;27499;48.884;2.258;2022-08-19T12:46:56;22.70;99.90
41058;DHT22;27499;48.884;2.258;2022-08-19T12:49:23;22.70;99.90
41058;DHT22;27499;48.884;2.258;2022-08-19T12:52:10;22.60;99.90
41058;DHT22;27499;48.884;2.258;2022-08-19T12:54:39;22.70;99.90
41058;DHT22;27499;48.884;2.258;2022-08-19T12:57:07;22.60;99.90
41058;DHT22;27499;48.884;2.258;2022-08-19T12:59:35;22.70;99.90
41058;DHT22;27499;48.884;2.258;2022-08-19T13:02:07;22.70;99.90
41058;DHT22;27499;48.884;2.258;2022-08-19T13:04:35;22.70;99.90
41058;DHT22;27499;48.884;2.258;2022-08-19T13:07:03;22.70;99.90
41058;DHT22;27499;48.884;2.258;2022-08-19T13:09:30;22.80;99.90
41058;DHT22;27499;48.884;2.258;2022-08-19T13:11:56;22.80;99.90
41058;DHT22;27499;48.884;2.258;2022-08-19T13:14:23;22.80;99.90
41058;DHT22;27499;48.884;2.258;2022-08-19T13:16:52;22.80;99.90
41058;DHT22;27499;48.884;2.258;2022-08-19T13:19:19;22.90;99.90
41058;DHT22;27499;48.884;2.258;2022-08-19T13:21:50;22.90;99.90
41058;DHT22;27499;48.884;2.258;2022-08-19T13:24:25;22.90;99.90
41058;DHT22;27499;48.884;2.258;2022-08-19T13:27:00;23.00;99.90
41058;DHT22;27499;48.884;2.258;2022-08-19T13:29:27;23.00;99.90
41058;DHT22;27499;48.884;2.258;2022-08-19T13:32:13;23.00;99.90
41058;DHT22;27499;48.884;2.258;2022-08-19T13:34:58;23.10;99.90
41058;DHT22;27499;48.884;2.258;2022-08-19T13:37:25;23.10;99.90
41058;DHT22;27499;48.884;2.258;2022-08-19T13:40:16;23.10;99.90
41058;DHT22;27499;48.884;2.258;2022-08-19T13:42:47;23.20;99.90
41058;DHT22;27499;48.884;2.258;2022-08-19T13:45:16;23.30;99.90
41058;DHT22;27499;48.884;2.258;2022-08-19T13:47:47;23.30;99.90
41058;DHT22;27499;48.884;2.258;2022-08-19T13:50:18;23.30;99.90
41058;DHT22;27499;48.884;2.258;2022-08-19T13:52:46;23.30;99.90
41058;DHT22;27499;48.884;2.258;2022-08-19T13:55:15;23.40;99.90
41058;DHT22;27499;48.884;2.258;2022-08-19T13:57:55;23.40;99.90
41058;DHT22;27499;48.884;2.258;2022-08-19T14:00:24;23.50;99.90
41058;DHT22;27499;48.884;2.258;2022-08-19T14:02:55;23.50;99.90
41058;DHT22;27499;48.884;2.258;2022-08-19T14:05:23;23.60;99.90
41058;DHT22;27499;48.884;2.258;2022-08-19T14:07:51;23.60;99.90
41058;DHT22;27499;48.884;2.258;2022-08-19T14:10:19;23.60;99.90
41058;DHT22;27499;48.884;2.258;2022-08-19T14:12:46;23.50;99.90
41058;DHT22;27499;48.884;2.258;2022-08-19T14:15:14;23.50;99.90
41058;DHT22;27499;48.884;2.258;2022-08-19T14:17:43;23.50;99.90
41058;DHT22;27499;48.884;2.258;2022-08-19T14:20:11;23.50;99.90
41058;DHT22;27499;48.884;2.258;2022-08-19T14:22:45;23.50;99.90
41058;DHT22;27499;48.884;2.258;2022-08-19T14:25:20;23.60;99.90
41058;DHT22;27499;48.884;2.258;2022-08-19T14:27:48;23.60;99.90
41058;DHT22;27499;48.884;2.258;2022-08-19T14:30:19;23.60;99.90
41058;DHT22;27499;48.884;2.258;2022-08-19T14:32:46;23.60;99.90
41058;DHT22;27499;48.884;2.258;2022-08-19T14:35:15;23.60;99.90
41058;DHT22;27499;48.884;2.258;2022-08-19T14:37:44;23.60;99.90
41058;DHT22;27499;48.884;2.258;2022-08-19T14:40:14;23.60;99.90
41058;DHT22;27499;48.884;2.258;2022-08-19T14:42:42;23.70;99.90
41058;DHT22;27499;48.884;2.258;2022-08-19T14:45:10;23.70;99.90
41058;DHT22;27499;48.884;2.258;2022-08-19T14:47:38;23.70;99.90
41058;DHT22;27499;48.884;2.258;2022-08-19T14:50:10;23.70;99.90
41058;DHT22;27499;48.884;2.258;2022-08-19T14:52:45;23.70;99.90
41058;DHT22;27499;48.884;2.258;2022-08-19T14:55:16;23.70;99.90
41058;DHT22;27499;48.884;2.258;2022-08-19T14:57:44;23.70;99.90
41058;DHT22;27499;48.884;2.258;2022-08-19T15:00:12;23.70;99.90
41058;DHT22;27499;48.884;2.258;2022-08-19T15:02:40;23.60;99.90
41058;DHT22;27499;48.884;2.258;2022-08-19T15:05:08;23.60;99.90
41058;DHT22;27499;48.884;2.258;2022-08-19T15:07:36;23.60;99.90
41058;DHT22;27499;48.884;2.258;2022-08-19T15:10:05;23.60;99.90
41058;DHT22;27499;48.884;2.258;2022-08-19T15:12:37;23.60;99.90
41058;DHT22;27499;48.884;2.258;2022-08-19T15:15:11;23.50;99.90
41058;DHT22;27499;48.884;2.258;2022-08-19T15:17:44;23.60;99.90
41058;DHT22;27499;48.884;2.258;2022-08-19T15:20:20;23.50;99.90
41058;DHT22;27499;48.884;2.258;2022-08-19T15:22:50;23.60;99.90
41058;DHT22;27499;48.884;2.258;2022-08-19T15:25:18;23.50;99.90
41058;DHT22;27499;48.884;2.258;2022-08-19T15:27:46;23.60;99.90
41058;DHT22;27499;48.884;2.258;2022-08-19T15:30:23;23.60;99.90
41058;DHT22;27499;48.884;2.258;2022-08-19T15:32:51;23.60;99.90
41058;DHT22;27499;48.884;2.258;2022-08-19T15:35:20;23.70;99.90
41058;DHT22;27499;48.884;2.258;2022-08-19T15:37:51;23.70;99.90
41058;DHT22;27499;48.884;2.258;2022-08-19T15:40:19;23.70;99.90
41058;DHT22;27499;48.884;2.258;2022-08-19T15:42:47;23.70;99.90
41058;DHT22;27499;48.884;2.258;2022-08-19T15:45:17;23.70;99.90
41058;DHT22;27499;48.884;2.258;2022-08-19T15:47:44;23.70;99.90
41058;DHT22;27499;48.884;2.258;2022-08-19T15:50:18;23.70;99.90
41058;DHT22;27499;48.884;2.258;2022-08-19T15:52:49;23.70;99.90
41058;DHT22;27499;48.884;2.258;2022-08-19T15:55:23;23.60;99.90
41058;DHT22;27499;48.884;2.258;2022-08-19T16:00:53;23.60;99.90
41058;DHT22;27499;48.884;2.258;2022-08-19T16:03:40;23.60;99.90